Time;durP1;ratioP1;P1;durP2;ratioP2;P2;SDS_P1;SDS_P2;PMS_P1;PMS_P2;Temp;Humidity;BMP_temperature;BMP_pressure;BME280_temperature;BME280_humidity;BME280_pressure;Samples;Min_cycle;Max_cycle;Signal;HPM_P1;HPM_P2
2022/12/13 00:01:19;;;;;;;40.67;21.43;;;;;;;-5.13;93.92;101144.25;5019595;28;20038;-57
2022/12/13 00:03:45;;;;;;;37.70;20.63;;;;;;;-5.13;93.77;101140.84;5019360;28;20034;-57
2022/12/13 00:06:11;;;;;;;35.90;20.63;;;;;;;-5.13;93.69;101140.84;5021300;28;20574;-57
2022/12/13 00:08:37;;;;;;;39.37;20.90;;;;;;;-5.17;93.47;101131.50;5021416;28;20029;-57
2022/12/13 00:11:05;;;;;;;41.77;21.17;;;;;;;-5.21;93.45;101130.75;5017256;28;20454;-57
2022/12/13 00:13:31;;;;;;;37.27;20.53;;;;;;;-5.25;93.67;101125.75;5024038;28;20029;-58
2022/12/13 00:15:58;;;;;;;41.03;20.33;;;;;;;-5.23;93.58;101135.09;5019600;28;20072;-58
2022/12/13 00:18:24;;;;;;;39.27;21.37;;;;;;;-5.24;94.05;101132.59;5026242;28;20124;-57
2022/12/13 00:20:49;;;;;;;38.33;19.90;;;;;;;-5.31;93.92;101119.88;5028226;28;20064;-55
2022/12/13 00:23:14;;;;;;;36.37;20.47;;;;;;;-5.28;93.64;101127.53;5020335;28;20061;-58
2022/12/13 00:25:40;;;;;;;38.83;20.20;;;;;;;-5.29;93.75;101123.25;5025251;28;20034;-58
2022/12/13 00:28:05;;;;;;;39.50;20.33;;;;;;;-5.31;93.56;101127.63;5023861;28;20041;-57
2022/12/13 00:30:30;;;;;;;39.90;21.37;;;;;;;-5.36;93.59;101124.34;5026279;28;20108;-58
2022/12/13 00:32:56;;;;;;;38.00;20.20;;;;;;;-5.34;93.48;101121.72;5022299;28;20037;-58
2022/12/13 00:35:22;;;;;;;40.90;21.03;;;;;;;-5.34;93.67;101122.56;5012119;28;20041;-57
2022/12/13 00:37:47;;;;;;;42.00;21.30;;;;;;;-5.34;93.95;101127.72;5015716;28;20117;-56
2022/12/13 00:40:13;;;;;;;39.90;20.37;;;;;;;-5.35;93.71;101126.03;5020122;28;20096;-57
2022/12/13 00:42:38;;;;;;;39.87;21.17;;;;;;;-5.37;93.77;101125.25;5020987;28;20375;-56
2022/12/13 00:45:04;;;;;;;38.70;20.47;;;;;;;-5.39;93.64;101116.69;5021586;28;20133;-58
2022/12/13 00:47:29;;;;;;;39.57;20.80;;;;;;;-5.37;93.64;101122.66;5018933;28;20496;-58
2022/12/13 00:49:54;;;;;;;40.20;21.43;;;;;;;-5.38;93.67;101123.53;5025704;28;20025;-56
2022/12/13 00:52:19;;;;;;;38.20;21.37;;;;;;;-5.44;93.25;101121.16;5021021;28;20034;-57
2022/12/13 00:54:45;;;;;;;41.80;21.63;;;;;;;-5.43;93.72;101122.88;5023812;28;20893;-58
2022/12/13 00:57:10;;;;;;;38.53;20.40;;;;;;;-5.45;93.77;101120.34;5025930;28;20041;-56
2022/12/13 00:59:35;;;;;;;36.97;20.50;;;;;;;-5.45;93.18;101119.47;5018524;28;20034;-58
2022/12/13 01:02:01;;;;;;;36.87;21.03;;;;;;;-5.46;93.55;101112.63;5020778;28;20033;-57
2022/12/13 01:04:26;;;;;;;37.20;21.60;;;;;;;-5.49;93.40;101112.75;5017811;28;20030;-58
2022/12/13 01:06:53;;;;;;;38.80;20.43;;;;;;;-5.46;93.41;101112.63;5024400;28;20112;-57
2022/12/13 01:09:29;;;;;;;37.43;19.30;;;;;;;-5.49;93.33;101112.75;5018698;28;20041;-57
2022/12/13 01:11:57;;;;;;;39.87;20.70;;;;;;;-5.51;93.36;101115.38;5020624;28;20328;-58
2022/12/13 01:14:22;;;;;;;41.57;21.00;;;;;;;-5.53;93.57;101117.13;5021707;28;20037;-58
2022/12/13 01:16:48;;;;;;;41.07;19.80;;;;;;;-5.55;93.21;101106.03;5019877;28;20041;-56
2022/12/13 01:19:13;;;;;;;38.57;20.60;;;;;;;-5.61;93.32;101109.66;5021866;28;20049;-57
2022/12/13 01:21:38;;;;;;;42.13;21.13;;;;;;;-5.66;93.46;101101.22;5019829;28;20037;-58
2022/12/13 01:24:05;;;;;;;40.37;20.00;;;;;;;-5.72;93.76;101112.56;5021507;28;20072;-56
2022/12/13 01:26:31;;;;;;;36.87;20.70;;;;;;;-5.71;93.47;101100.50;5019061;28;20030;-57
2022/12/13 01:28:57;;;;;;;41.30;21.13;;;;;;;-5.73;93.23;101104.91;5020492;28;20030;-58
2022/12/13 01:31:22;;;;;;;41.13;21.03;;;;;;;-5.73;93.35;101104.91;5020807;28;20036;-58
2022/12/13 01:33:48;;;;;;;44.20;21.90;;;;;;;-5.74;93.57;101110.94;5022200;28;20034;-56
2022/12/13 01:36:18;;;;;;;38.03;20.57;;;;;;;-5.77;93.50;101108.47;5021220;28;20025;-57
2022/12/13 01:38:43;;;;;;;43.73;21.13;;;;;;;-5.77;93.43;101108.47;5025700;28;20060;-57
2022/12/13 01:41:14;;;;;;;38.13;19.97;;;;;;;-5.83;93.26;101099.16;5028150;28;20473;-57
2022/12/13 01:43:39;;;;;;;39.40;20.37;;;;;;;-5.74;93.19;101119.53;5028775;28;20050;-57
2022/12/13 01:46:05;;;;;;;41.30;21.80;;;;;;;-5.75;93.04;101117.00;5024099;28;20045;-57
2022/12/13 01:48:38;;;;;;;42.73;23.03;;;;;;;-5.77;93.56;101111.06;5029192;28;20396;-57
2022/12/13 01:51:06;;;;;;;43.73;21.27;;;;;;;-5.79;93.13;101120.59;5024078;28;20034;-56
2022/12/13 01:53:35;;;;;;;41.73;21.03;;;;;;;-5.84;93.23;101113.81;5024836;28;20120;-57
2022/12/13 01:56:06;;;;;;;40.60;21.10;;;;;;;-5.81;93.67;101121.47;5027144;28;20033;-57
2022/12/13 01:58:33;;;;;;;39.97;21.33;;;;;;;-5.85;93.44;101112.16;5027324;28;20034;-58
2022/12/13 02:00:59;;;;;;;39.40;21.13;;;;;;;-5.90;93.43;101114.03;5026540;28;20485;-58
2022/12/13 02:03:25;;;;;;;38.40;20.40;;;;;;;-5.94;93.28;101112.41;5023834;28;20029;-57
2022/12/13 02:06:00;;;;;;;41.33;20.93;;;;;;;-5.97;93.37;101117.69;5029287;28;20437;-55
2022/12/13 02:08:25;;;;;;;40.67;20.97;;;;;;;-6.01;93.22;101108.34;5029765;28;20037;-57
2022/12/13 02:10:51;;;;;;;40.47;20.73;;;;;;;-5.99;93.79;101110.00;5023752;28;20048;-56
2022/12/13 02:13:16;;;;;;;39.07;19.83;;;;;;;-5.97;93.81;101112.53;5029529;28;20079;-57
2022/12/13 02:16:00;;;;;;;40.10;20.70;;;;;;;-5.96;93.97;101109.88;5026805;28;20037;-57
2022/12/13 02:18:38;;;;;;;38.67;20.70;;;;;;;-6.01;93.20;101101.47;5027042;28;20040;-56
2022/12/13 02:21:18;;;;;;;42.37;20.53;;;;;;;-6.00;93.61;101102.28;5018667;28;20382;-59
2022/12/13 02:24:02;;;;;;;40.43;21.03;;;;;;;-6.01;93.75;101105.75;5023721;28;20044;-57
2022/12/13 02:26:42;;;;;;;38.70;19.50;;;;;;;-6.04;93.49;101108.47;5030353;28;20022;-59
2022/12/13 02:29:17;;;;;;;38.43;20.67;;;;;;;-6.06;93.64;101102.50;5021006;28;20057;-58
2022/12/13 02:31:48;;;;;;;39.17;20.63;;;;;;;-6.06;93.29;101110.25;5027874;28;20084;-57
2022/12/13 02:34:23;;;;;;;40.43;20.77;;;;;;;-6.11;93.01;101105.25;5025175;28;20029;-57
2022/12/13 02:37:01;;;;;;;40.23;22.77;;;;;;;-6.12;93.44;101109.53;5024195;28;20030;-57
2022/12/13 02:39:33;;;;;;;37.67;20.37;;;;;;;-6.18;93.53;101099.41;5023253;28;20053;-57
2022/12/13 02:42:11;;;;;;;36.58;20.65;;;;;;;-6.21;93.11;101099.50;5029076;28;20029;-57
2022/12/13 02:44:42;;;;;;;40.13;20.73;;;;;;;-6.22;93.26;101097.84;5019985;28;20048;-57
2022/12/13 02:47:21;;;;;;;39.03;20.53;;;;;;;-6.19;93.31;101092.56;5028342;28;20033;-56
2022/12/13 02:49:53;;;;;;;38.13;19.57;;;;;;;-6.20;92.83;101096.03;5024743;28;20091;-58
2022/12/13 02:52:21;;;;;;;37.80;19.83;;;;;;;-6.25;93.12;101085.88;5027067;28;20049;-59
2022/12/13 02:54:47;;;;;;;39.00;19.37;;;;;;;-6.24;93.12;101089.28;5021910;28;20033;-58
2022/12/13 02:57:26;;;;;;;39.00;20.60;;;;;;;-6.22;93.47;101092.66;5026939;28;20037;-58
2022/12/13 02:59:52;;;;;;;41.93;21.23;;;;;;;-6.21;93.55;101084.03;5021263;28;20099;-58
2022/12/13 03:02:59;;;;;;;43.43;22.10;;;;;;;-6.21;92.97;101086.59;5022646;28;20033;-57
2022/12/13 03:09:07;;;;;;;42.23;22.47;;;;;;;-6.23;93.85;101083.22;5028173;28;20091;-57
2022/12/13 03:15:00;;;;;;;39.33;21.03;;;;;;;-6.35;93.12;101067.19;5022976;28;20056;-58
2022/12/13 03:17:32;;;;;;;40.63;20.50;;;;;;;-6.46;92.97;101073.59;5025885;28;20026;-55
2022/12/13 03:19:57;;;;;;;44.33;20.77;;;;;;;-6.40;92.95;101087.16;5030299;28;20048;-57
2022/12/13 03:22:22;;;;;;;39.40;20.33;;;;;;;-6.42;93.37;101082.94;5027332;28;20287;-56
2022/12/13 03:24:48;;;;;;;38.73;20.67;;;;;;;-6.46;93.56;101082.19;5024976;28;20033;-58
2022/12/13 03:27:13;;;;;;;41.07;21.27;;;;;;;-6.54;93.73;101072.09;5029777;28;20026;-56
2022/12/13 03:29:39;;;;;;;46.40;21.83;;;;;;;-6.45;93.76;101081.28;5028261;28;20029;-58
2022/12/13 03:32:04;;;;;;;39.77;20.93;;;;;;;-6.46;94.34;101079.59;5023126;28;20616;-57
2022/12/13 03:34:29;;;;;;;41.70;20.83;;;;;;;-6.43;94.23;101076.09;5025785;28;20516;-57
2022/12/13 03:36:55;;;;;;;40.53;21.53;;;;;;;-6.46;94.20;101084.78;5024584;28;20835;-57
2022/12/13 03:39:21;;;;;;;41.60;21.40;;;;;;;-6.50;94.02;101085.75;5025194;28;20029;-57
2022/12/13 03:41:47;;;;;;;39.67;20.90;;;;;;;-6.51;94.30;101081.47;5020137;28;20042;-56
2022/12/13 03:44:13;;;;;;;39.07;21.00;;;;;;;-6.44;94.98;101077.81;5025734;28;20058;-56
2022/12/13 03:46:38;;;;;;;42.17;21.00;;;;;;;-6.42;94.47;101065.69;5027404;28;20049;-57
2022/12/13 03:49:03;;;;;;;40.10;21.57;;;;;;;-6.36;94.87;101075.00;5019942;28;20469;-57
2022/12/13 03:51:30;;;;;;;46.50;21.77;;;;;;;-6.35;95.06;101077.53;5026304;28;20045;-58
2022/12/13 03:53:55;;;;;;;44.30;21.13;;;;;;;-6.33;94.81;101079.25;5020934;28;20112;-57
2022/12/13 03:56:20;;;;;;;43.97;20.93;;;;;;;-6.33;94.72;101080.06;5016096;28;20101;-57
2022/12/13 03:58:46;;;;;;;40.47;21.47;;;;;;;-6.41;94.59;101061.41;5022600;28;20095;-58
2022/12/13 04:01:12;;;;;;;41.93;21.30;;;;;;;-6.42;94.25;101065.69;5017883;28;20033;-58
2022/12/13 04:03:40;;;;;;;44.37;21.97;;;;;;;-6.46;94.66;101066.72;5026781;28;20050;-56
2022/12/13 04:06:07;;;;;;;43.73;21.50;;;;;;;-6.43;94.60;101069.19;5021567;28;20034;-57
2022/12/13 04:08:33;;;;;;;46.50;21.63;;;;;;;-6.42;95.24;101064.88;5024890;28;20040;-57
2022/12/13 04:10:58;;;;;;;45.03;21.83;;;;;;;-6.40;95.29;101063.94;5024032;28;20551;-57
2022/12/13 04:13:33;;;;;;;41.77;21.33;;;;;;;-6.36;95.02;101062.94;5022235;28;20034;-57
2022/12/13 04:15:59;;;;;;;43.07;21.80;;;;;;;-6.35;95.96;101067.19;5027856;28;20029;-56
2022/12/13 04:18:25;;;;;;;44.83;22.23;;;;;;;-6.31;95.46;101062.81;5015335;28;20026;-57
2022/12/13 04:20:50;;;;;;;43.50;22.00;;;;;;;-6.28;95.60;101061.88;5019952;28;20032;-57
2022/12/13 04:23:15;;;;;;;44.83;22.87;;;;;;;-6.31;95.74;101062.81;5024671;28;20438;-58
2022/12/13 04:25:42;;;;;;;42.40;21.30;;;;;;;-6.30;95.71;101058.47;5019741;28;20145;-57
2022/12/13 04:28:07;;;;;;;45.73;23.03;;;;;;;-6.29;95.78;101055.00;5025457;28;20057;-57
2022/12/13 04:30:33;;;;;;;44.13;22.67;;;;;;;-6.30;96.20;101055.91;5023563;28;20148;-58
2022/12/13 04:32:59;;;;;;;45.03;22.47;;;;;;;-6.30;95.73;101058.47;5023418;28;20419;-57
2022/12/13 04:35:24;;;;;;;46.33;22.97;;;;;;;-6.27;95.94;101060.97;5023480;28;20026;-56
2022/12/13 04:37:50;;;;;;;45.67;22.60;;;;;;;-6.27;95.69;101064.38;5020249;28;20041;-57
2022/12/13 04:40:15;;;;;;;40.73;21.37;;;;;;;-6.39;95.71;101042.41;5012838;28;20121;-59
2022/12/13 04:42:41;;;;;;;43.60;21.73;;;;;;;-6.26;95.85;101062.66;5017795;28;20046;-58
2022/12/13 04:45:06;;;;;;;44.87;21.80;;;;;;;-6.26;95.90;101054.91;5027736;28;20038;-58
2022/12/13 04:47:32;;;;;;;40.90;22.47;;;;;;;-6.25;96.20;101052.31;5020311;28;20034;-57
2022/12/13 04:49:57;;;;;;;41.37;22.40;;;;;;;-6.26;96.59;101042.00;5028890;28;20032;-57
2022/12/13 04:52:23;;;;;;;44.77;22.60;;;;;;;-6.27;96.15;101048.06;5015255;28;20038;-57
2022/12/13 04:54:49;;;;;;;43.27;22.20;;;;;;;-6.29;96.10;101050.69;5022407;28;20044;-60
2022/12/13 04:57:14;;;;;;;43.83;21.87;;;;;;;-6.27;96.94;101042.91;5024673;28;20419;-55
2022/12/13 04:59:40;;;;;;;47.57;23.40;;;;;;;-6.28;96.44;101047.22;5020896;28;20026;-57
2022/12/13 05:02:06;;;;;;;41.80;22.53;;;;;;;-6.28;96.76;101051.56;5019288;28;20034;-57
2022/12/13 05:04:32;;;;;;;43.37;22.00;;;;;;;-6.27;96.52;101048.06;5015097;28;20037;-57
2022/12/13 05:06:57;;;;;;;41.80;23.13;;;;;;;-6.27;96.29;101042.91;5022388;28;20117;-58
2022/12/13 05:09:23;;;;;;;47.07;24.10;;;;;;;-6.28;96.76;101041.22;5020920;28;20378;-57
2022/12/13 05:11:49;;;;;;;40.87;22.30;;;;;;;-6.29;96.94;101048.13;5016935;28;20060;-58
2022/12/13 05:14:14;;;;;;;42.93;22.30;;;;;;;-6.33;96.83;101043.94;5022883;28;20038;-56
2022/12/13 05:16:40;;;;;;;40.13;22.20;;;;;;;-6.31;96.18;101044.75;5029009;28;20034;-56
2022/12/13 05:19:05;;;;;;;43.93;22.80;;;;;;;-6.35;96.75;101043.16;5029879;28;20038;-56
2022/12/13 05:21:33;;;;;;;44.90;22.57;;;;;;;-6.36;95.83;101038.88;5020316;28;20485;-57
2022/12/13 05:23:59;;;;;;;43.10;21.90;;;;;;;-6.37;96.49;101037.19;5029086;28;20038;-55
2022/12/13 05:26:24;;;;;;;41.83;21.83;;;;;;;-6.38;96.16;101033.75;5027531;28;20057;-56
2022/12/13 05:28:49;;;;;;;40.23;21.20;;;;;;;-6.38;95.86;101036.34;5020372;28;20036;-57
2022/12/13 05:31:15;;;;;;;42.63;21.27;;;;;;;-6.39;96.46;101024.34;5027883;28;20599;-58
2022/12/13 05:33:40;;;;;;;43.13;21.33;;;;;;;-6.40;96.09;101027.81;5028063;28;20045;-56
2022/12/13 05:36:06;;;;;;;41.87;22.50;;;;;;;-6.40;96.37;101027.81;5017968;28;20107;-57
2022/12/13 05:38:31;;;;;;;47.23;22.03;;;;;;;-6.39;96.24;101026.06;5014574;28;20370;-58
2022/12/13 05:40:57;;;;;;;45.50;22.40;;;;;;;-6.40;96.05;101021.78;5027428;28;20044;-56
2022/12/13 05:43:23;;;;;;;42.27;20.97;;;;;;;-6.42;96.48;101019.25;5027975;28;20098;-57
2022/12/13 05:45:49;;;;;;;41.53;21.47;;;;;;;-6.43;96.81;101022.72;5028778;28;20033;-55
2022/12/13 05:48:14;;;;;;;44.73;21.20;;;;;;;-6.42;95.95;101023.59;5030279;28;20037;-55
2022/12/13 05:50:40;;;;;;;42.63;21.70;;;;;;;-6.41;95.82;101020.09;5024702;28;20042;-58
2022/12/13 05:53:05;;;;;;;40.80;21.83;;;;;;;-6.43;96.04;101021.91;5027645;28;20052;-57
2022/12/13 05:55:31;;;;;;;41.03;20.93;;;;;;;-6.45;95.81;101013.34;5026322;28;20048;-57
2022/12/13 05:57:57;;;;;;;41.87;21.20;;;;;;;-6.44;96.15;101021.03;5022742;28;20469;-58
2022/12/13 06:00:23;;;;;;;42.30;22.07;;;;;;;-6.48;96.13;101016.84;5029463;28;20112;-57
2022/12/13 06:02:48;;;;;;;41.53;21.00;;;;;;;-6.50;95.65;101022.06;5029764;28;20112;-58
2022/12/13 06:05:13;;;;;;;44.23;21.87;;;;;;;-6.50;96.14;101021.22;5020066;28;22632;-57
2022/12/13 06:07:39;;;;;;;43.27;21.70;;;;;;;-6.53;96.03;101024.75;5023698;28;20029;-56
2022/12/13 06:10:05;;;;;;;43.37;21.70;;;;;;;-6.54;95.65;101024.78;5025161;28;20073;-57
2022/12/13 06:12:32;;;;;;;39.57;21.00;;;;;;;-6.55;95.59;101023.09;5026922;28;20481;-57
2022/12/13 06:14:58;;;;;;;42.90;21.40;;;;;;;-6.56;95.83;101026.59;5023943;28;20036;-58
2022/12/13 06:17:24;;;;;;;41.97;22.23;;;;;;;-6.56;96.12;101032.56;5029937;28;20029;-57
2022/12/13 06:19:50;;;;;;;42.57;22.77;;;;;;;-6.57;95.98;101033.47;5020960;28;20031;-59
2022/12/13 06:22:16;;;;;;;43.50;22.03;;;;;;;-6.55;95.95;101030.84;5020257;28;20143;-58
2022/12/13 06:24:41;;;;;;;44.17;22.00;;;;;;;-6.55;96.18;101025.69;5024850;28;20116;-56
2022/12/13 06:27:06;;;;;;;41.53;22.30;;;;;;;-6.54;96.32;101024.78;5030809;28;20025;-58
2022/12/13 06:29:31;;;;;;;45.50;22.40;;;;;;;-6.57;96.13;101023.16;5029840;28;20381;-56
2022/12/13 06:31:59;;;;;;;43.47;22.53;;;;;;;-6.63;95.53;101026.75;5029067;28;20473;-58
2022/12/13 06:34:26;;;;;;;44.80;22.17;;;;;;;-6.65;95.46;101031.13;5024782;28;20478;-57
2022/12/13 06:36:51;;;;;;;45.73;23.30;;;;;;;-6.67;95.87;101027.75;5025729;28;20124;-57
2022/12/13 06:39:17;;;;;;;45.23;22.00;;;;;;;-6.64;96.34;101035.41;5023925;28;20106;-57
2022/12/13 06:41:42;;;;;;;44.50;22.50;;;;;;;-6.63;95.89;101025.91;5025408;28;20026;-58
2022/12/13 06:44:07;;;;;;;44.10;22.67;;;;;;;-6.66;95.76;101032.00;5020558;28;20033;-58
2022/12/13 06:46:35;;;;;;;41.30;21.57;;;;;;;-6.66;95.52;101039.75;5028233;28;20538;-57
2022/12/13 06:49:00;;;;;;;41.17;21.80;;;;;;;-6.64;95.36;101032.81;5024004;28;20029;-56
2022/12/13 06:51:26;;;;;;;45.10;22.30;;;;;;;-6.63;95.90;101046.53;5027191;28;20029;-58
2022/12/13 06:53:52;;;;;;;44.30;22.53;;;;;;;-6.65;95.30;101028.56;5023977;28;20358;-58
2022/12/13 06:56:17;;;;;;;43.67;22.83;;;;;;;-6.68;96.03;101020.91;5026383;28;20469;-58
2022/12/13 06:58:42;;;;;;;44.77;22.73;;;;;;;-6.70;95.64;101022.69;5026993;28;20389;-58
2022/12/13 07:01:11;;;;;;;43.23;22.57;;;;;;;-6.72;95.42;101021.88;5025815;28;20834;-57
2022/12/13 07:03:36;;;;;;;46.10;23.17;;;;;;;-6.72;95.31;101021.88;5026941;28;20037;-58
2022/12/13 07:06:07;;;;;;;47.43;23.47;;;;;;;-6.70;95.80;101025.25;5023133;28;20056;-57
2022/12/13 07:08:34;;;;;;;52.73;24.70;;;;;;;-6.71;96.30;101017.56;5023786;28;20037;-56
2022/12/13 07:11:00;;;;;;;47.07;22.77;;;;;;;-6.71;96.74;101023.56;5019523;28;20029;-56
2022/12/13 07:13:25;;;;;;;46.67;24.00;;;;;;;-6.72;96.48;101027.03;5023175;28;20409;-56
2022/12/13 07:15:51;;;;;;;51.10;24.30;;;;;;;-6.71;97.17;101026.13;5019813;28;20156;-58
2022/12/13 07:18:16;;;;;;;49.73;25.20;;;;;;;-6.71;97.09;101031.28;5023694;28;20058;-57
2022/12/13 07:20:43;;;;;;;50.30;25.37;;;;;;;-6.73;97.15;101014.19;5019658;28;20038;-57
2022/12/13 07:23:09;;;;;;;50.77;25.33;;;;;;;-6.68;97.21;101020.91;5024724;28;20544;-57
2022/12/13 07:25:35;;;;;;;47.17;25.87;;;;;;;-6.68;97.41;101020.91;5025600;28;20413;-58
2022/12/13 07:28:06;;;;;;;50.30;25.50;;;;;;;-6.68;97.34;101022.63;5022104;28;20038;-58
2022/12/13 07:30:33;;;;;;;49.13;26.67;;;;;;;-6.65;97.69;101028.56;5024903;28;20040;-57
2022/12/13 07:33:00;;;;;;;52.33;25.47;;;;;;;-6.63;97.49;101023.31;5027458;28;20715;-57
2022/12/13 07:35:26;;;;;;;50.27;25.77;;;;;;;-6.62;97.67;101025.88;5020120;28;20451;-58
2022/12/13 07:37:51;;;;;;;50.77;25.93;;;;;;;-6.61;97.75;101019.00;5022167;28;20038;-57
2022/12/13 07:40:16;;;;;;;50.50;25.13;;;;;;;-6.58;98.55;101029.19;5031228;28;20029;-57
2022/12/13 07:42:51;;;;;;;52.37;25.83;;;;;;;-6.58;98.03;101034.34;5027325;28;20052;-57
2022/12/13 07:45:17;;;;;;;48.47;23.93;;;;;;;-6.58;97.83;101029.19;5022349;28;20115;-57
2022/12/13 07:47:42;;;;;;;52.87;26.90;;;;;;;-6.57;98.10;101027.47;5015581;28;20103;-57
2022/12/13 07:50:08;;;;;;;50.93;26.70;;;;;;;-6.57;97.91;101025.72;5017829;28;20041;-58
2022/12/13 07:52:33;;;;;;;54.67;25.73;;;;;;;-6.52;98.57;101038.50;5027631;28;20045;-56
2022/12/13 07:54:58;;;;;;;47.40;26.10;;;;;;;-6.48;98.23;101037.50;5031125;28;20025;-57
2022/12/13 07:57:24;;;;;;;48.07;25.77;;;;;;;-6.44;98.28;101043.41;5025833;28;20037;-57
2022/12/13 07:59:49;;;;;;;50.20;25.93;;;;;;;-6.44;98.74;101041.69;5018451;28;20076;-57
2022/12/13 08:02:14;;;;;;;53.40;26.57;;;;;;;-6.41;98.44;101039.00;5025435;28;20596;-58
2022/12/13 08:04:41;;;;;;;57.27;26.93;;;;;;;-6.38;98.26;101040.66;5023947;28;20057;-56
2022/12/13 08:07:10;;;;;;;52.27;26.07;;;;;;;-6.39;98.77;101034.66;5018958;28;20447;-58
2022/12/13 08:09:36;;;;;;;55.73;28.40;;;;;;;-6.36;98.39;101029.38;5025279;28;20044;-57
2022/12/13 08:12:02;;;;;;;52.33;26.90;;;;;;;-6.33;98.80;101035.38;5021608;28;20033;-57
2022/12/13 08:14:27;;;;;;;53.47;26.93;;;;;;;-6.33;98.79;101033.59;5025113;28;20420;-56
2022/12/13 08:16:52;;;;;;;55.13;28.50;;;;;;;-6.31;99.30;101034.41;5023901;28;20029;-57
2022/12/13 08:19:18;;;;;;;56.93;29.63;;;;;;;-6.30;99.29;101032.66;5026348;28;20100;-56
2022/12/13 08:21:43;;;;;;;61.40;30.43;;;;;;;-6.27;98.97;101040.34;5021909;28;20433;-61
2022/12/13 08:24:08;;;;;;;57.80;29.33;;;;;;;-6.23;99.53;101039.31;5016138;28;20470;-60
2022/12/13 08:26:34;;;;;;;59.37;29.37;;;;;;;-6.22;99.33;101036.69;5018812;28;20183;-61
2022/12/13 08:28:59;;;;;;;57.97;29.60;;;;;;;-6.20;99.52;101036.66;5021349;28;20026;-61
2022/12/13 08:31:25;;;;;;;58.17;29.50;;;;;;;-6.17;99.17;101046.03;5020415;28;20034;-61
2022/12/13 08:33:50;;;;;;;60.30;29.90;;;;;;;-6.14;99.70;101044.22;5022369;28;20037;-60
2022/12/13 08:36:16;;;;;;;57.60;29.77;;;;;;;-6.10;99.72;101048.41;5028637;28;20080;-60
2022/12/13 08:38:45;;;;;;;62.20;29.97;;;;;;;-6.10;99.93;101050.97;5021828;28;20041;-61
2022/12/13 08:41:11;;;;;;;57.40;29.43;;;;;;;-6.02;100.00;101052.47;5025113;28;20048;-60
2022/12/13 08:43:37;;;;;;;63.80;30.90;;;;;;;-5.99;100.00;101042.84;5022341;28;20076;-60
2022/12/13 08:46:03;;;;;;;58.37;29.87;;;;;;;-5.95;99.91;101044.44;5029709;28;20037;-61
2022/12/13 08:48:28;;;;;;;61.50;30.77;;;;;;;-5.91;100.00;101050.34;5021407;28;20029;-60
2022/12/13 08:50:54;;;;;;;57.57;29.50;;;;;;;-5.87;99.94;101041.59;5020142;28;20041;-61
2022/12/13 08:53:19;;;;;;;68.30;31.27;;;;;;;-5.82;100.00;101047.44;5027398;28;20025;-60
2022/12/13 08:55:45;;;;;;;67.90;32.23;;;;;;;-5.78;100.00;101060.28;5024595;28;20974;-60
2022/12/13 08:58:10;;;;;;;66.00;31.83;;;;;;;-5.71;100.00;101059.19;5021469;28;20057;-60
2022/12/13 09:00:36;;;;;;;63.30;31.60;;;;;;;-5.63;100.00;101067.50;5025212;28;20041;-62
2022/12/13 09:03:03;;;;;;;64.47;31.43;;;;;;;-5.53;100.00;101073.22;5021909;28;20026;-61
2022/12/13 09:05:29;;;;;;;65.17;32.03;;;;;;;-5.43;100.00;101066.84;5030222;28;20515;-62
2022/12/13 09:07:56;;;;;;;62.80;31.87;;;;;;;-5.34;100.00;101057.09;5027412;28;20029;-61
2022/12/13 09:10:21;;;;;;;63.57;31.97;;;;;;;-5.28;100.00;101065.47;5031344;28;20496;-60
2022/12/13 09:12:46;;;;;;;67.90;32.27;;;;;;;-5.24;100.00;101062.78;5035051;28;20029;-60
2022/12/13 09:15:12;;;;;;;64.07;31.43;;;;;;;-5.21;100.00;101062.66;5031526;28;20025;-62
2022/12/13 09:17:37;;;;;;;66.67;31.20;;;;;;;-5.15;100.00;101065.03;5028142;28;20042;-61
2022/12/13 09:20:06;;;;;;;58.47;30.27;;;;;;;-5.13;100.00;101058.09;5026407;28;20393;-63
2022/12/13 09:22:31;;;;;;;59.17;30.27;;;;;;;-5.13;100.00;101052.91;5028451;28;20051;-61
2022/12/13 09:24:56;;;;;;;60.17;30.83;;;;;;;-5.05;100.00;101056.06;5019207;28;20029;-60
2022/12/13 09:27:23;;;;;;;58.53;29.87;;;;;;;-5.01;100.00;101067.13;5017271;28;20034;-60
2022/12/13 09:29:48;;;;;;;57.97;30.30;;;;;;;-5.00;100.00;101063.66;5024997;28;20030;-60
2022/12/13 09:32:14;;;;;;;59.63;29.53;;;;;;;-4.95;100.00;101063.50;5025165;28;20456;-61
2022/12/13 09:34:39;;;;;;;59.80;30.57;;;;;;;-4.90;100.00;101065.00;5029223;28;20044;-59
2022/12/13 09:37:05;;;;;;;55.90;29.90;;;;;;;-4.85;100.00;101067.41;5026161;28;20108;-61
2022/12/13 09:39:30;;;;;;;63.40;31.03;;;;;;;-4.80;100.00;101064.69;5025598;28;20599;-61
2022/12/13 09:41:57;;;;;;;59.50;29.40;;;;;;;-4.78;100.00;101061.13;5017508;28;20485;-63
2022/12/13 09:44:29;;;;;;;57.00;30.40;;;;;;;-4.72;100.00;101062.66;5026899;28;20052;-60
2022/12/13 09:46:58;;;;;;;57.75;30.70;;;;;;;-4.65;100.00;101058.09;5027042;28;20580;-60
2022/12/13 09:49:34;;;;;;;58.83;30.70;;;;;;;-4.60;100.00;101061.31;5025525;28;20645;-60
2022/12/13 09:52:02;;;;;;;59.00;29.53;;;;;;;-4.54;100.00;101061.09;5024043;28;20037;-60
2022/12/13 09:54:27;;;;;;;61.20;31.00;;;;;;;-4.46;100.00;101047.88;5025277;28;20041;-60
2022/12/13 09:56:55;;;;;;;59.73;31.00;;;;;;;-4.39;100.00;101048.47;5029418;28;20056;-59
2022/12/13 09:59:27;;;;;;;61.57;32.30;;;;;;;-4.34;100.00;101049.16;5030139;28;20033;-58
2022/12/13 10:01:54;;;;;;;59.55;30.58;;;;;;;-4.25;100.00;101055.72;5023726;28;20033;-58
2022/12/13 10:04:19;;;;;;;61.27;29.33;;;;;;;-4.20;100.00;101054.63;5026358;28;20197;-56
2022/12/13 10:06:44;;;;;;;60.07;31.53;;;;;;;-4.15;100.00;101044.06;5026930;28;20140;-56
2022/12/13 10:09:12;;;;;;;63.10;30.63;;;;;;;-4.10;100.00;101044.72;5020018;28;20091;-59
2022/12/13 10:11:47;;;;;;;57.43;30.53;;;;;;;-4.08;99.62;101035.19;5017248;28;20055;-56
2022/12/13 10:14:38;;;;;;;59.00;30.77;;;;;;;-4.02;99.83;101036.66;5025598;28;20052;-57
2022/12/13 10:17:07;;;;;;;60.07;31.00;;;;;;;-3.98;99.61;101030.47;5021830;28;20503;-61
2022/12/13 10:19:35;;;;;;;59.97;29.97;;;;;;;-3.98;99.64;101022.69;5014533;28;20079;-60
2022/12/13 10:22:03;;;;;;;60.07;30.10;;;;;;;-3.93;99.53;101025.94;5023125;28;20030;-58
2022/12/13 10:25:02;;;;;;;61.20;30.67;;;;;;;-3.87;99.56;101039.53;5022631;28;20036;-58
2022/12/13 10:27:37;;;;;;;58.83;31.73;;;;;;;-3.86;99.29;101042.06;5025830;28;20469;-59
2022/12/13 10:30:05;;;;;;;57.30;29.93;;;;;;;-3.84;99.25;101023.88;5025215;28;20026;-59
2022/12/13 10:32:40;;;;;;;56.23;29.37;;;;;;;-3.86;98.80;101010.13;5024621;28;20033;-59
2022/12/13 10:35:36;;;;;;;58.40;29.33;;;;;;;-3.85;98.67;101011.81;5016233;28;20042;-61
2022/12/13 10:38:25;;;;;;;58.03;30.23;;;;;;;-3.79;98.85;101006.38;5027423;28;20041;-59
2022/12/13 10:40:50;;;;;;;55.87;28.53;;;;;;;-3.75;98.66;101013.09;5022530;28;20128;-57
2022/12/13 10:43:20;;;;;;;57.30;29.47;;;;;;;-3.74;98.43;101009.63;5025675;28;20544;-61
2022/12/13 10:45:54;;;;;;;56.20;29.03;;;;;;;-3.74;98.20;101009.63;5016927;28;20453;-61
2022/12/13 10:48:23;;;;;;;57.17;29.80;;;;;;;-3.81;98.22;100995.22;5020391;28;20026;-59
2022/12/13 10:51:07;;;;;;;57.27;29.33;;;;;;;-3.71;98.42;100996.53;5026076;28;21639;-57
2022/12/13 10:53:40;;;;;;;53.07;28.13;;;;;;;-3.64;98.34;100999.69;5022735;28;20059;-59
2022/12/13 10:56:06;;;;;;;59.13;30.17;;;;;;;-3.57;98.29;100985.56;5024799;28;20049;-60
2022/12/13 10:58:43;;;;;;;53.43;28.77;;;;;;;-3.49;98.21;100982.66;5021417;28;20034;-60
2022/12/13 11:01:13;;;;;;;54.07;28.23;;;;;;;-3.41;97.89;100979.72;5011527;28;20495;-61
2022/12/13 11:03:38;;;;;;;55.17;28.50;;;;;;;-3.33;97.69;100976.78;5026083;28;20044;-58
2022/12/13 11:06:16;;;;;;;57.63;29.13;;;;;;;-3.30;98.01;100969.69;5021982;28;20026;-62
2022/12/13 11:08:42;;;;;;;53.00;28.80;;;;;;;-3.24;97.32;100968.59;5022110;28;20049;-60
2022/12/13 11:11:08;;;;;;;57.17;28.80;;;;;;;-3.19;97.44;100968.38;5021499;28;20064;-60
2022/12/13 11:13:53;;;;;;;55.40;29.00;;;;;;;-3.13;97.43;100965.50;5029552;28;20034;-59
2022/12/13 11:16:23;;;;;;;54.13;29.33;;;;;;;-3.06;97.25;100958.28;5021907;28;20030;-59
2022/12/13 11:18:57;;;;;;;53.53;27.90;;;;;;;-3.04;96.53;100949.53;5023465;28;20045;-59